Smithfield - 24 Hour Table
Date & TimeSolar
Radiation
(W/m²)
Wind
Speed
(mph)
Wind
Direction
(degrees)
Air
Temperature
(°F)
Relative
Humidity
(%)
Precipitation
(inches)
2018/12/11 19:00 0 3.1 45 27.2 80 0.00
2018/12/11 18:00 0 3.8 44 26.8 81 0.00
2018/12/11 17:00 18 2.9 359 28.8 79 0.00
2018/12/11 16:00 95 3.8 307 30.4 73 0.00
2018/12/11 15:00 258 3.9 267 32.0 73 0.00
2018/12/11 14:00 398 3.6 215 32.8 70 0.00
2018/12/11 13:00 430 4.3 210 31.8 77 0.00
2018/12/11 12:00 333 2.8 203 30.4 75 0.00
2018/12/11 11:00 215 2.2 211 27.9 82 0.00
2018/12/11 10:00 115 1.8 274 26.7 90 0.00
2018/12/11 09:00 40 0.6 142 25.5 92 0.00
2018/12/11 08:00 2 1.8 90 24.9 93 0.00
2018/12/11 07:00 0 1.7 174 24.1 97 0.00
2018/12/11 06:00 0 1.3 84 24.5 96 0.00
2018/12/11 05:00 0 1.4 192 23.9 97 0.00
2018/12/11 04:00 0 0.8 227 24.8 94 0.00
2018/12/11 03:00 0 0.5 197 25.0 93 0.00
2018/12/11 02:00 0 2.1 170 24.1 95 0.00
2018/12/11 01:00 0 2.0 259 24.1 97 0.00
2018/12/11 00:00 0 3.1 57 25.1 94 0.00
2018/12/10 23:00 0 1.7 78 24.1 95 0.00
2018/12/10 22:00 0 2.2 3 25.0 95 0.00
2018/12/10 21:00 0 2.0 114 24.9 95 0.00
2018/12/10 20:00 0 3.8 47 26.0 93 0.00